createdAt,value
2022-10-06T00:01:03.264Z,14.16
2022-10-06T00:03:31.120Z,14.33
2022-10-06T00:06:02.908Z,14.29
2022-10-06T00:08:35.096Z,14.35
2022-10-06T00:11:02.156Z,14.34
2022-10-06T00:13:30.515Z,14.51
2022-10-06T00:15:57.495Z,14.23
2022-10-06T00:18:24.396Z,14.41
2022-10-06T00:20:59.251Z,14.51
2022-10-06T00:23:27.542Z,14.44
2022-10-06T00:25:54.680Z,14.39
2022-10-06T00:28:21.775Z,14.35
2022-10-06T00:30:48.767Z,14.33
2022-10-06T00:33:17.855Z,14.27
2022-10-06T00:35:46.833Z,14.23
2022-10-06T00:38:16.031Z,14.41
2022-10-06T00:40:46.022Z,14.38
2022-10-06T00:43:46.442Z,14.27
2022-10-06T00:46:32.864Z,14.30
2022-10-06T00:49:12.569Z,14.14
2022-10-06T00:51:47.428Z,13.83
2022-10-06T00:54:14.760Z,13.69
2022-10-06T00:56:41.587Z,13.42
2022-10-06T00:59:12.187Z,13.53
2022-10-06T01:01:44.532Z,13.46
2022-10-06T01:04:14.474Z,13.41
2022-10-06T01:06:45.347Z,13.46
2022-10-06T01:09:17.284Z,13.53
2022-10-06T01:11:47.323Z,13.38
2022-10-06T01:14:14.925Z,13.05
2022-10-06T01:16:43.938Z,13.07
2022-10-06T01:19:24.834Z,13.11
2022-10-06T01:21:54.431Z,13.15
2022-10-06T01:24:21.187Z,13.23
2022-10-06T01:26:50.736Z,13.40
2022-10-06T01:29:18.482Z,13.49
2022-10-06T01:31:45.932Z,13.52
2022-10-06T01:34:13.797Z,13.64
2022-10-06T01:36:41.588Z,13.58
2022-10-06T01:39:09.350Z,13.67
2022-10-06T01:41:39.152Z,13.79
2022-10-06T01:44:05.905Z,13.56
2022-10-06T01:46:32.708Z,13.64
2022-10-06T01:48:59.668Z,13.61
2022-10-06T01:51:26.570Z,13.56
2022-10-06T01:53:53.302Z,13.58
2022-10-06T01:56:22.160Z,13.53
2022-10-06T01:58:49.067Z,13.67
2022-10-06T02:01:16.452Z,13.25
2022-10-06T02:03:43.538Z,13.10
2022-10-06T02:06:10.790Z,13.27
2022-10-06T02:08:37.802Z,13.35
2022-10-06T02:11:09.323Z,13.55
2022-10-06T02:13:41.033Z,13.37
2022-10-06T02:16:10.299Z,13.13
2022-10-06T02:18:37.790Z,13.18
2022-10-06T02:21:05.454Z,12.95
2022-10-06T02:23:33.030Z,13.19
2022-10-06T02:26:02.043Z,12.93
2022-10-06T02:28:30.066Z,13.06
2022-10-06T02:31:07.509Z,13.10
2022-10-06T02:33:38.048Z,13.12
2022-10-06T02:36:11.557Z,13.26
2022-10-06T02:38:39.399Z,13.25
2022-10-06T02:41:08.964Z,13.26
2022-10-06T02:43:36.904Z,13.24
2022-10-06T02:46:06.981Z,13.25
2022-10-06T02:48:35.576Z,13.18
2022-10-06T02:51:07.858Z,13.04
2022-10-06T02:53:37.841Z,12.97
2022-10-06T02:56:19.154Z,13.18
2022-10-06T02:58:50.474Z,13.25
2022-10-06T03:01:28.653Z,13.33
2022-10-06T03:03:59.640Z,13.27
2022-10-06T03:06:29.293Z,13.27
2022-10-06T03:09:19.202Z,13.22
2022-10-06T03:11:46.403Z,13.19
2022-10-06T03:14:22.093Z,13.09
2022-10-06T03:16:54.975Z,13.10
2022-10-06T03:19:25.973Z,13.19
2022-10-06T03:21:53.794Z,13.14
2022-10-06T03:24:24.572Z,13.35
2022-10-06T03:26:55.396Z,13.23
2022-10-06T03:29:22.291Z,13.14
2022-10-06T03:31:53.518Z,13.21
2022-10-06T03:34:20.422Z,13.19
2022-10-06T03:36:47.921Z,13.16
2022-10-06T03:39:18.120Z,13.00
2022-10-06T03:41:45.124Z,13.05
2022-10-06T03:44:11.923Z,13.09
2022-10-06T03:46:41.753Z,12.99
2022-10-06T03:49:08.777Z,12.87
2022-10-06T03:51:38.773Z,13.01
2022-10-06T03:54:10.882Z,12.87
2022-10-06T03:56:41.198Z,13.06
2022-10-06T03:59:13.641Z,12.94
2022-10-06T04:01:45.476Z,13.01
2022-10-06T04:04:15.061Z,13.11
2022-10-06T04:06:44.844Z,12.94
2022-10-06T04:09:18.041Z,13.02
2022-10-06T04:11:45.636Z,13.02
2022-10-06T04:14:15.572Z,13.03
2022-10-06T04:16:46.341Z,12.88
2022-10-06T04:19:16.342Z,12.93
2022-10-06T04:21:48.297Z,12.96
2022-10-06T04:24:19.081Z,12.88
2022-10-06T04:26:52.383Z,12.88
2022-10-06T04:29:21.133Z,12.88
2022-10-06T04:31:54.523Z,12.72
2022-10-06T04:34:33.648Z,12.73
2022-10-06T04:37:00.620Z,12.65
2022-10-06T04:39:27.504Z,12.54
2022-10-06T04:41:55.692Z,12.69
2022-10-06T04:44:26.768Z,12.89
2022-10-06T04:46:55.763Z,13.00
2022-10-06T04:49:23.364Z,12.91
2022-10-06T04:51:52.712Z,12.97
2022-10-06T04:54:19.622Z,12.91
2022-10-06T04:56:50.235Z,12.92
2022-10-06T04:59:21.143Z,13.01
2022-10-06T05:01:48.757Z,12.93
2022-10-06T05:04:15.539Z,12.94
2022-10-06T05:06:43.140Z,12.90
2022-10-06T05:09:13.381Z,12.95
2022-10-06T05:11:46.762Z,12.92
2022-10-06T05:14:16.089Z,12.92
2022-10-06T05:16:45.940Z,13.00
2022-10-06T05:19:14.110Z,13.02
2022-10-06T05:21:41.058Z,13.03
2022-10-06T05:24:11.020Z,13.05
2022-10-06T05:26:38.488Z,13.14
2022-10-06T05:29:09.049Z,13.26
2022-10-06T05:31:38.920Z,13.27
2022-10-06T05:34:07.169Z,13.37
2022-10-06T05:36:34.729Z,13.28
2022-10-06T05:39:03.815Z,13.10
2022-10-06T05:41:38.196Z,13.20
2022-10-06T05:44:09.073Z,13.43
2022-10-06T05:46:38.139Z,13.61
2022-10-06T05:49:09.585Z,13.73
2022-10-06T05:51:42.148Z,13.86
2022-10-06T05:54:20.264Z,13.98
2022-10-06T05:56:47.056Z,14.02
2022-10-06T05:59:13.825Z,14.08
2022-10-06T06:01:42.447Z,14.31
2022-10-06T06:04:23.117Z,14.28
2022-10-06T06:06:52.741Z,14.44
2022-10-06T06:09:22.671Z,14.55
2022-10-06T06:11:55.214Z,14.63
2022-10-06T06:15:02.106Z,14.74
2022-10-06T06:17:34.520Z,14.67
2022-10-06T06:20:04.155Z,14.91
2022-10-06T06:22:30.857Z,14.99
2022-10-06T06:24:58.681Z,14.99
2022-10-06T06:27:26.266Z,15.09
2022-10-06T06:29:53.637Z,15.11
2022-10-06T06:32:20.405Z,15.02
2022-10-06T06:34:48.325Z,15.04
2022-10-06T06:37:15.572Z,15.29
2022-10-06T06:39:45.802Z,15.35
2022-10-06T06:42:12.759Z,15.33
2022-10-06T06:44:41.056Z,15.51
2022-10-06T06:47:25.929Z,15.61
2022-10-06T06:49:56.001Z,15.60
2022-10-06T06:52:26.148Z,15.66
2022-10-06T06:54:54.777Z,15.69
2022-10-06T06:57:21.553Z,15.82
2022-10-06T06:59:52.393Z,15.77
2022-10-06T07:02:19.900Z,15.99
2022-10-06T07:04:48.209Z,16.27
2022-10-06T07:07:17.284Z,16.38
2022-10-06T07:09:44.157Z,16.37
2022-10-06T07:12:12.686Z,16.43
2022-10-06T07:15:09.805Z,16.54
2022-10-06T07:18:01.413Z,16.28
2022-10-06T07:20:48.297Z,16.49
2022-10-06T07:23:39.646Z,16.68
2022-10-06T07:26:11.298Z,16.43
2022-10-06T07:28:38.679Z,16.74
2022-10-06T07:31:06.733Z,16.87
2022-10-06T07:33:34.087Z,16.96
2022-10-06T07:36:04.604Z,16.68
2022-10-06T07:38:33.098Z,16.68
2022-10-06T07:41:18.841Z,16.93
2022-10-06T07:43:53.781Z,17.24
2022-10-06T07:46:21.024Z,17.37
2022-10-06T07:48:56.351Z,17.50
2022-10-06T07:51:24.690Z,17.55
2022-10-06T07:53:51.863Z,17.70
2022-10-06T07:56:24.924Z,17.93
2022-10-06T07:58:56.120Z,18.04
2022-10-06T08:01:25.580Z,18.07
2022-10-06T08:03:52.396Z,18.41
2022-10-06T08:06:19.823Z,18.40
2022-10-06T08:08:52.643Z,18.62
2022-10-06T08:11:22.649Z,18.63
2022-10-06T08:13:51.801Z,18.61
2022-10-06T08:16:21.180Z,19.12
2022-10-06T08:18:53.645Z,19.18
2022-10-06T08:21:26.124Z,19.41
2022-10-06T08:23:53.833Z,19.32
2022-10-06T08:26:22.420Z,19.53
2022-10-06T08:28:52.438Z,19.66
2022-10-06T08:31:22.818Z,19.41
2022-10-06T08:33:55.262Z,18.97
2022-10-06T08:36:27.063Z,18.59
2022-10-06T08:38:56.971Z,18.48
2022-10-06T08:41:35.419Z,19.07
2022-10-06T08:44:07.764Z,19.21
2022-10-06T08:46:44.681Z,19.61
2022-10-06T08:49:19.097Z,20.09
2022-10-06T08:52:41.230Z,20.40
2022-10-06T08:55:26.369Z,20.14
2022-10-06T08:58:11.808Z,20.73
2022-10-06T09:00:38.854Z,20.52
2022-10-06T09:03:07.570Z,20.79
2022-10-06T09:05:34.988Z,20.41
2022-10-06T09:08:01.737Z,21.17
2022-10-06T09:10:50.224Z,21.35
2022-10-06T09:13:22.358Z,21.56
2022-10-06T09:16:00.194Z,21.66
2022-10-06T09:19:03.481Z,21.37
2022-10-06T09:21:34.564Z,20.83
2022-10-06T09:24:07.734Z,21.59
2022-10-06T09:26:34.628Z,21.73
2022-10-06T09:29:01.765Z,21.57
2022-10-06T09:31:31.997Z,21.75
2022-10-06T09:34:18.552Z,21.53
2022-10-06T09:37:01.939Z,21.04
2022-10-06T09:39:36.371Z,21.28
2022-10-06T09:42:13.457Z,21.94
2022-10-06T09:44:51.498Z,21.79
2022-10-06T09:47:34.867Z,22.67
2022-10-06T09:50:04.975Z,23.21
2022-10-06T09:52:31.709Z,23.08
2022-10-06T09:55:11.426Z,23.53
2022-10-06T09:57:39.560Z,23.73
2022-10-06T10:00:29.501Z,23.66
2022-10-06T10:03:03.940Z,23.49
2022-10-06T10:05:34.058Z,23.86
2022-10-06T10:08:03.506Z,24.10
2022-10-06T10:10:30.786Z,24.00
2022-10-06T10:12:59.813Z,24.26
2022-10-06T10:15:31.322Z,23.82
2022-10-06T10:18:04.116Z,23.99
2022-10-06T10:20:36.341Z,24.07
2022-10-06T10:23:09.453Z,24.40
2022-10-06T10:25:36.382Z,24.47
2022-10-06T10:28:17.380Z,24.50
2022-10-06T10:30:55.548Z,23.86
2022-10-06T10:34:05.047Z,23.56
2022-10-06T10:36:49.808Z,23.89
2022-10-06T10:39:30.350Z,24.18
2022-10-06T10:42:02.647Z,24.51
2022-10-06T10:44:37.259Z,24.57
2022-10-06T10:47:28.193Z,24.68
2022-10-06T10:50:17.465Z,24.66
2022-10-06T10:52:48.842Z,24.40
2022-10-06T10:55:21.867Z,25.00
2022-10-06T10:57:51.051Z,24.86
2022-10-06T11:00:20.709Z,25.09
2022-10-06T11:02:47.999Z,25.17
2022-10-06T11:05:54.434Z,25.38
2022-10-06T11:08:27.111Z,25.57
2022-10-06T11:10:58.918Z,25.54
2022-10-06T11:13:37.777Z,25.78
2022-10-06T11:16:22.535Z,24.91
2022-10-06T11:19:14.832Z,25.55
2022-10-06T11:21:59.354Z,25.89
2022-10-06T11:24:44.450Z,25.95
2022-10-06T11:27:52.281Z,26.24
2022-10-06T11:30:20.978Z,26.20
2022-10-06T11:33:22.008Z,26.28
2022-10-06T11:35:49.283Z,26.54
2022-10-06T11:38:30.274Z,26.69
2022-10-06T11:41:21.266Z,26.70
2022-10-06T11:44:13.944Z,26.99
2022-10-06T11:47:06.231Z,27.38
2022-10-06T11:49:53.882Z,27.38
2022-10-06T11:52:20.522Z,27.88
2022-10-06T11:54:54.282Z,27.80
2022-10-06T11:57:30.229Z,27.82
2022-10-06T12:00:06.101Z,27.75
2022-10-06T12:02:35.658Z,28.15
2022-10-06T12:05:54.910Z,28.38
2022-10-06T12:08:07.750Z,28.71
2022-10-06T12:10:35.070Z,28.95
2022-10-06T12:14:26.559Z,28.76
2022-10-06T12:19:31.026Z,29.27
2022-10-06T12:22:31.287Z,28.96
2022-10-06T12:25:13.156Z,29.13
2022-10-06T12:27:57.948Z,28.99
2022-10-06T12:30:43.352Z,28.51
2022-10-06T12:33:17.526Z,29.05
2022-10-06T12:35:45.589Z,29.35
2022-10-06T12:38:30.885Z,29.25
2022-10-06T12:40:58.244Z,29.65
2022-10-06T12:43:28.323Z,29.75
2022-10-06T12:46:12.242Z,28.89
2022-10-06T12:49:06.391Z,27.18
2022-10-06T12:51:36.228Z,27.63
2022-10-06T12:54:19.540Z,28.16
2022-10-06T12:57:17.590Z,28.63
2022-10-06T12:59:44.743Z,29.20
2022-10-06T13:02:22.087Z,29.71
2022-10-06T13:04:53.406Z,29.72
2022-10-06T13:07:32.022Z,29.34
2022-10-06T13:10:14.262Z,29.64
2022-10-06T13:12:46.697Z,29.74
2022-10-06T13:18:02.476Z,29.99
2022-10-06T13:20:48.243Z,30.13
2022-10-06T13:23:34.161Z,29.81
2022-10-06T13:26:04.625Z,30.15
2022-10-06T13:28:37.189Z,30.48
2022-10-06T13:31:32.536Z,30.68
2022-10-06T13:34:06.936Z,30.17
2022-10-06T13:36:38.626Z,29.87
2022-10-06T13:39:22.255Z,30.20
2022-10-06T13:42:02.418Z,30.49
2022-10-06T13:44:42.255Z,30.46
2022-10-06T13:47:16.254Z,30.70
2022-10-06T13:49:56.989Z,30.45
2022-10-06T13:52:30.215Z,30.25
2022-10-06T13:55:00.054Z,30.37
2022-10-06T13:57:38.002Z,30.20
2022-10-06T14:00:24.730Z,29.96
2022-10-06T14:02:54.897Z,30.17
2022-10-06T14:05:32.467Z,30.28
2022-10-06T14:08:15.280Z,30.26
2022-10-06T14:11:11.651Z,30.02
2022-10-06T14:14:00.953Z,29.91
2022-10-06T14:16:28.999Z,29.51
2022-10-06T14:19:02.477Z,29.41
2022-10-06T14:21:32.095Z,29.42
2022-10-06T14:24:01.858Z,28.92
2022-10-06T14:26:32.899Z,28.80
2022-10-06T14:29:00.719Z,28.86
2022-10-06T14:31:28.601Z,28.76
2022-10-06T14:33:57.150Z,28.58
2022-10-06T14:36:35.787Z,28.34
2022-10-06T14:39:04.492Z,28.04
2022-10-06T14:41:31.922Z,27.92
2022-10-06T14:44:05.856Z,27.74
2022-10-06T14:46:33.891Z,27.78
2022-10-06T14:49:03.085Z,27.59
2022-10-06T14:51:33.190Z,27.51
2022-10-06T14:54:01.622Z,27.42
2022-10-06T14:56:31.669Z,27.14
2022-10-06T14:59:05.609Z,26.83
2022-10-06T15:01:34.912Z,26.70
2022-10-06T15:04:11.285Z,26.77
2022-10-06T15:06:57.498Z,26.61
2022-10-06T15:09:24.482Z,26.58
2022-10-06T15:11:51.851Z,26.50
2022-10-06T15:14:18.709Z,26.66
2022-10-06T15:16:46.786Z,26.41
2022-10-06T15:19:13.817Z,26.54
2022-10-06T15:21:45.421Z,26.60
2022-10-06T15:24:14.904Z,26.50
2022-10-06T15:27:01.258Z,26.05
2022-10-06T15:29:28.753Z,26.24
2022-10-06T15:31:55.679Z,26.38
2022-10-06T15:34:27.718Z,25.89
2022-10-06T15:36:56.235Z,25.92
2022-10-06T15:39:25.525Z,25.69
2022-10-06T15:41:53.085Z,25.35
2022-10-06T15:44:20.875Z,25.35
2022-10-06T15:46:49.255Z,25.17
2022-10-06T15:49:21.724Z,25.23
2022-10-06T15:51:52.801Z,25.08
2022-10-06T15:54:23.623Z,25.06
2022-10-06T15:56:56.225Z,24.90
2022-10-06T15:59:24.685Z,24.87
2022-10-06T16:01:55.657Z,25.12
2022-10-06T16:04:25.545Z,25.05
2022-10-06T16:06:56.514Z,24.84
2022-10-06T16:09:38.106Z,24.45
2022-10-06T16:12:09.281Z,24.24
2022-10-06T16:14:36.036Z,24.02
2022-10-06T16:17:05.066Z,23.73
2022-10-06T16:19:32.959Z,23.72
2022-10-06T16:22:00.879Z,23.79
2022-10-06T16:24:28.576Z,23.81
2022-10-06T16:26:57.999Z,23.62
2022-10-06T16:29:24.923Z,23.36
2022-10-06T16:31:53.066Z,23.39
2022-10-06T16:34:20.092Z,23.06
2022-10-06T16:36:46.990Z,23.33
2022-10-06T16:39:21.954Z,22.96
2022-10-06T16:41:49.970Z,22.89
2022-10-06T16:44:17.480Z,22.73
2022-10-06T16:46:45.061Z,22.05
2022-10-06T16:49:12.372Z,22.03
2022-10-06T16:51:42.161Z,22.26
2022-10-06T16:54:11.712Z,22.17
2022-10-06T16:56:41.491Z,22.30
2022-10-06T16:59:19.784Z,22.18
2022-10-06T17:01:47.889Z,21.68
2022-10-06T17:04:25.292Z,21.31
2022-10-06T17:06:54.613Z,21.17
2022-10-06T17:09:26.239Z,21.11
2022-10-06T17:12:00.040Z,21.23
2022-10-06T17:14:28.583Z,21.36
2022-10-06T17:16:58.636Z,20.69
2022-10-06T17:19:28.761Z,21.19
2022-10-06T17:21:58.949Z,21.28
2022-10-06T17:24:28.231Z,20.75
2022-10-06T17:26:55.919Z,20.74
2022-10-06T17:29:24.247Z,21.01
2022-10-06T17:31:59.285Z,21.16
2022-10-06T17:34:31.841Z,20.88
2022-10-06T17:37:01.752Z,20.94
2022-10-06T17:39:28.479Z,20.89
2022-10-06T17:41:56.759Z,21.00
2022-10-06T17:44:26.359Z,21.04
2022-10-06T17:46:55.649Z,20.94
2022-10-06T17:49:24.226Z,20.54
2022-10-06T17:51:53.743Z,19.83
2022-10-06T17:54:22.315Z,20.13
2022-10-06T17:56:52.438Z,20.06
2022-10-06T17:59:21.716Z,19.59
2022-10-06T18:01:51.216Z,19.88
2022-10-06T18:04:18.666Z,20.31
2022-10-06T18:06:47.003Z,20.20
2022-10-06T18:09:15.520Z,19.80
2022-10-06T18:11:44.427Z,19.99
2022-10-06T18:14:21.984Z,20.29
2022-10-06T18:16:55.903Z,20.34
2022-10-06T18:19:31.261Z,20.31
2022-10-06T18:22:00.781Z,19.81
2022-10-06T18:24:30.066Z,20.01
2022-10-06T18:26:59.751Z,19.75
2022-10-06T18:29:32.409Z,19.68
2022-10-06T18:33:19.595Z,20.04
2022-10-06T18:37:34.996Z,19.65
2022-10-06T18:40:05.847Z,19.27
2022-10-06T18:42:33.132Z,19.05
2022-10-06T18:45:18.325Z,19.11
2022-10-06T18:48:03.717Z,19.36
2022-10-06T18:50:31.102Z,19.44
2022-10-06T18:52:57.932Z,19.32
2022-10-06T18:55:26.427Z,19.20
2022-10-06T18:57:53.468Z,19.49
2022-10-06T19:00:20.330Z,19.57
2022-10-06T19:02:49.415Z,19.39
2022-10-06T19:05:17.489Z,19.44
2022-10-06T19:07:45.001Z,19.55
2022-10-06T19:10:12.253Z,19.50
2022-10-06T19:12:39.087Z,19.34
2022-10-06T19:15:06.253Z,19.05
2022-10-06T19:17:33.137Z,18.93
2022-10-06T19:19:59.801Z,18.83
2022-10-06T19:22:26.723Z,18.97
2022-10-06T19:24:53.497Z,18.64
2022-10-06T19:27:24.966Z,18.81
2022-10-06T19:29:54.396Z,18.79
2022-10-06T19:32:27.644Z,18.75
2022-10-06T19:34:58.918Z,18.93
2022-10-06T19:37:30.909Z,18.94
2022-10-06T19:39:58.185Z,19.02
2022-10-06T19:42:57.340Z,19.10
2022-10-06T19:45:24.154Z,19.26
2022-10-06T19:47:51.433Z,18.92
2022-10-06T19:50:19.148Z,18.95
2022-10-06T19:52:45.964Z,19.00
2022-10-06T19:55:13.897Z,18.57
2022-10-06T19:57:40.841Z,18.88
2022-10-06T20:00:08.844Z,19.10
2022-10-06T20:02:43.259Z,19.12
2022-10-06T20:05:15.238Z,19.02
2022-10-06T20:07:44.252Z,19.08
2022-10-06T20:10:12.613Z,19.18
2022-10-06T20:12:41.447Z,18.87
2022-10-06T20:15:09.999Z,18.70
2022-10-06T20:17:36.855Z,17.84
2022-10-06T20:20:04.376Z,18.23
2022-10-06T20:22:31.796Z,18.60
2022-10-06T20:24:58.876Z,17.90
2022-10-06T20:27:25.641Z,17.54
2022-10-06T20:29:53.199Z,16.85
2022-10-06T20:32:19.935Z,16.94
2022-10-06T20:34:46.713Z,16.47
2022-10-06T20:37:13.412Z,17.09
2022-10-06T20:39:59.176Z,17.35
2022-10-06T20:42:27.983Z,16.44
2022-10-06T20:44:54.679Z,17.14
2022-10-06T20:47:21.662Z,17.13
2022-10-06T20:49:54.367Z,17.40
2022-10-06T20:52:23.200Z,17.69
2022-10-06T20:54:51.303Z,17.76
2022-10-06T20:57:18.445Z,17.77
2022-10-06T20:59:46.132Z,17.94
2022-10-06T21:02:13.457Z,17.93
2022-10-06T21:04:45.956Z,17.99
2022-10-06T21:07:12.805Z,17.67
2022-10-06T21:09:39.695Z,17.56
2022-10-06T21:12:06.642Z,17.33
2022-10-06T21:14:34.182Z,17.46
2022-10-06T21:17:01.771Z,17.45
2022-10-06T21:19:30.187Z,17.46
2022-10-06T21:21:57.231Z,16.83
2022-10-06T21:24:25.119Z,16.85
2022-10-06T21:26:53.045Z,16.84
2022-10-06T21:29:20.538Z,16.79
2022-10-06T21:31:47.320Z,16.76
2022-10-06T21:34:15.235Z,16.91
2022-10-06T21:36:43.322Z,16.63
2022-10-06T21:39:11.202Z,16.49
2022-10-06T21:41:39.491Z,16.31
2022-10-06T21:44:09.224Z,16.66
2022-10-06T21:46:37.367Z,16.62
2022-10-06T21:49:07.113Z,16.75
2022-10-06T21:51:33.990Z,16.70
2022-10-06T21:54:01.851Z,16.82
2022-10-06T21:56:31.352Z,16.93
2022-10-06T21:58:58.971Z,16.85
2022-10-06T22:01:29.203Z,16.73
2022-10-06T22:03:56.838Z,16.50
2022-10-06T22:06:24.061Z,16.69
2022-10-06T22:08:51.078Z,16.02
2022-10-06T22:11:26.641Z,16.36
2022-10-06T22:13:56.930Z,16.38
2022-10-06T22:16:25.395Z,15.57
2022-10-06T22:18:53.035Z,14.34
2022-10-06T22:21:28.497Z,14.60
2022-10-06T22:23:57.746Z,15.00
2022-10-06T22:26:25.418Z,15.35
2022-10-06T22:28:54.055Z,15.60
2022-10-06T22:31:25.750Z,15.61
2022-10-06T22:34:01.675Z,15.88
2022-10-06T22:36:28.798Z,16.07
2022-10-06T22:38:56.551Z,15.89
2022-10-06T22:41:23.969Z,14.67
2022-10-06T22:43:57.469Z,15.33
2022-10-06T22:46:35.502Z,15.80
2022-10-06T22:49:05.182Z,15.53
2022-10-06T22:51:31.910Z,15.77
2022-10-06T22:53:59.955Z,15.45
2022-10-06T22:56:32.211Z,16.11
2022-10-06T22:58:59.940Z,16.18
2022-10-06T23:01:28.462Z,16.20
2022-10-06T23:03:55.709Z,15.89
2022-10-06T23:06:22.779Z,15.59
2022-10-06T23:08:49.605Z,15.74
2022-10-06T23:11:19.002Z,15.82
2022-10-06T23:13:46.550Z,15.10
2022-10-06T23:16:15.378Z,15.27
2022-10-06T23:18:43.848Z,15.40
2022-10-06T23:21:22.095Z,15.47
2022-10-06T23:23:54.309Z,15.54
2022-10-06T23:26:22.593Z,15.34
2022-10-06T23:29:07.552Z,15.69
2022-10-06T23:31:34.510Z,15.80
2022-10-06T23:34:01.243Z,15.82
2022-10-06T23:36:28.012Z,15.34
2022-10-06T23:38:54.910Z,15.55
2022-10-06T23:41:21.856Z,15.70
2022-10-06T23:43:49.003Z,15.56
2022-10-06T23:46:16.116Z,15.27
2022-10-06T23:48:43.350Z,15.46
2022-10-06T23:51:15.487Z,15.60
2022-10-06T23:53:43.093Z,14.79
2022-10-06T23:56:10.691Z,14.89
2022-10-06T23:58:37.686Z,15.05
